sensor_id;sensor_type;location;lat;lon;timestamp;P1;durP1;ratioP1;P2;durP2;ratioP2
30647;SDS011;17683;53.360;9.736;2023-06-05T00:02:08;6.05;;;3.78;;
30647;SDS011;17683;53.360;9.736;2023-06-05T00:04:34;7.88;;;3.45;;
30647;SDS011;17683;53.360;9.736;2023-06-05T00:07:01;4.45;;;3.50;;
30647;SDS011;17683;53.360;9.736;2023-06-05T00:09:27;6.80;;;3.53;;
30647;SDS011;17683;53.360;9.736;2023-06-05T00:11:53;4.88;;;3.50;;
30647;SDS011;17683;53.360;9.736;2023-06-05T00:14:19;4.38;;;3.10;;
30647;SDS011;17683;53.360;9.736;2023-06-05T00:16:45;5.45;;;3.40;;
30647;SDS011;17683;53.360;9.736;2023-06-05T00:19:10;4.55;;;3.25;;
30647;SDS011;17683;53.360;9.736;2023-06-05T00:21:37;5.93;;;3.45;;
30647;SDS011;17683;53.360;9.736;2023-06-05T00:24:03;3.72;;;2.92;;
30647;SDS011;17683;53.360;9.736;2023-06-05T00:26:28;6.32;;;3.70;;
30647;SDS011;17683;53.360;9.736;2023-06-05T00:28:54;7.18;;;3.00;;
30647;SDS011;17683;53.360;9.736;2023-06-05T00:31:20;4.70;;;3.35;;
30647;SDS011;17683;53.360;9.736;2023-06-05T00:33:47;7.05;;;3.95;;
30647;SDS011;17683;53.360;9.736;2023-06-05T00:36:13;5.88;;;3.58;;
30647;SDS011;17683;53.360;9.736;2023-06-05T00:38:39;5.20;;;3.40;;
30647;SDS011;17683;53.360;9.736;2023-06-05T00:41:05;6.80;;;3.38;;
30647;SDS011;17683;53.360;9.736;2023-06-05T00:43:31;4.18;;;3.20;;
30647;SDS011;17683;53.360;9.736;2023-06-05T00:45:58;7.18;;;4.00;;
30647;SDS011;17683;53.360;9.736;2023-06-05T00:48:28;8.27;;;3.15;;
30647;SDS011;17683;53.360;9.736;2023-06-05T00:50:54;5.95;;;3.30;;
30647;SDS011;17683;53.360;9.736;2023-06-05T00:53:22;4.68;;;3.28;;
30647;SDS011;17683;53.360;9.736;2023-06-05T00:55:49;6.20;;;4.43;;
30647;SDS011;17683;53.360;9.736;2023-06-05T00:58:16;6.45;;;4.20;;
30647;SDS011;17683;53.360;9.736;2023-06-05T01:00:43;6.72;;;4.20;;
30647;SDS011;17683;53.360;9.736;2023-06-05T01:03:09;5.68;;;2.92;;
30647;SDS011;17683;53.360;9.736;2023-06-05T01:05:37;3.70;;;3.28;;
30647;SDS011;17683;53.360;9.736;2023-06-05T01:08:03;7.80;;;4.25;;
30647;SDS011;17683;53.360;9.736;2023-06-05T01:10:30;6.50;;;3.72;;
30647;SDS011;17683;53.360;9.736;2023-06-05T01:15:46;6.85;;;4.38;;
30647;SDS011;17683;53.360;9.736;2023-06-05T01:18:13;6.50;;;3.85;;
30647;SDS011;17683;53.360;9.736;2023-06-05T01:20:39;6.43;;;4.05;;
30647;SDS011;17683;53.360;9.736;2023-06-05T01:23:07;7.00;;;4.72;;
30647;SDS011;17683;53.360;9.736;2023-06-05T01:25:34;7.32;;;4.60;;
30647;SDS011;17683;53.360;9.736;2023-06-05T01:30:34;7.45;;;4.53;;
30647;SDS011;17683;53.360;9.736;2023-06-05T01:35:38;8.07;;;4.50;;
30647;SDS011;17683;53.360;9.736;2023-06-05T01:38:06;5.80;;;4.00;;
30647;SDS011;17683;53.360;9.736;2023-06-05T01:40:34;7.45;;;3.92;;
30647;SDS011;17683;53.360;9.736;2023-06-05T01:43:01;7.97;;;4.63;;
30647;SDS011;17683;53.360;9.736;2023-06-05T01:45:30;8.57;;;4.40;;
30647;SDS011;17683;53.360;9.736;2023-06-05T01:47:57;5.00;;;3.63;;
30647;SDS011;17683;53.360;9.736;2023-06-05T01:50:23;6.20;;;4.03;;
30647;SDS011;17683;53.360;9.736;2023-06-05T01:52:49;7.05;;;3.67;;
30647;SDS011;17683;53.360;9.736;2023-06-05T01:55:18;8.68;;;4.53;;
30647;SDS011;17683;53.360;9.736;2023-06-05T01:57:48;8.98;;;4.80;;
30647;SDS011;17683;53.360;9.736;2023-06-05T02:00:14;10.15;;;5.03;;
30647;SDS011;17683;53.360;9.736;2023-06-05T02:02:44;7.13;;;4.18;;
30647;SDS011;17683;53.360;9.736;2023-06-05T02:05:12;9.30;;;5.30;;
30647;SDS011;17683;53.360;9.736;2023-06-05T02:07:39;8.20;;;4.25;;
30647;SDS011;17683;53.360;9.736;2023-06-05T02:10:14;9.48;;;4.90;;
30647;SDS011;17683;53.360;9.736;2023-06-05T02:12:43;7.15;;;4.78;;
30647;SDS011;17683;53.360;9.736;2023-06-05T02:15:09;8.40;;;5.13;;
30647;SDS011;17683;53.360;9.736;2023-06-05T02:17:38;5.60;;;4.13;;
30647;SDS011;17683;53.360;9.736;2023-06-05T02:20:13;6.05;;;4.25;;
30647;SDS011;17683;53.360;9.736;2023-06-05T02:22:40;6.30;;;4.18;;
30647;SDS011;17683;53.360;9.736;2023-06-05T02:25:06;6.63;;;4.82;;
30647;SDS011;17683;53.360;9.736;2023-06-05T02:27:33;10.15;;;4.70;;
30647;SDS011;17683;53.360;9.736;2023-06-05T02:29:59;6.70;;;4.25;;
30647;SDS011;17683;53.360;9.736;2023-06-05T02:32:25;9.13;;;5.03;;
30647;SDS011;17683;53.360;9.736;2023-06-05T02:34:51;7.32;;;4.97;;
30647;SDS011;17683;53.360;9.736;2023-06-05T02:37:17;8.45;;;4.80;;
30647;SDS011;17683;53.360;9.736;2023-06-05T02:39:44;6.40;;;4.15;;
30647;SDS011;17683;53.360;9.736;2023-06-05T02:42:10;10.82;;;4.50;;
30647;SDS011;17683;53.360;9.736;2023-06-05T02:44:37;5.53;;;4.55;;
30647;SDS011;17683;53.360;9.736;2023-06-05T02:47:03;6.95;;;4.75;;
30647;SDS011;17683;53.360;9.736;2023-06-05T02:49:30;7.25;;;4.65;;
30647;SDS011;17683;53.360;9.736;2023-06-05T02:51:57;7.65;;;4.85;;
30647;SDS011;17683;53.360;9.736;2023-06-05T02:54:22;9.82;;;5.20;;
30647;SDS011;17683;53.360;9.736;2023-06-05T02:56:48;7.00;;;5.18;;
30647;SDS011;17683;53.360;9.736;2023-06-05T02:59:14;11.65;;;5.22;;
30647;SDS011;17683;53.360;9.736;2023-06-05T03:01:40;9.05;;;5.25;;
30647;SDS011;17683;53.360;9.736;2023-06-05T03:04:12;8.30;;;4.57;;
30647;SDS011;17683;53.360;9.736;2023-06-05T03:06:38;7.50;;;4.55;;
30647;SDS011;17683;53.360;9.736;2023-06-05T03:09:08;6.20;;;4.18;;
30647;SDS011;17683;53.360;9.736;2023-06-05T03:11:34;7.05;;;4.50;;
30647;SDS011;17683;53.360;9.736;2023-06-05T03:14:00;8.23;;;4.82;;
30647;SDS011;17683;53.360;9.736;2023-06-05T03:16:25;7.05;;;4.72;;
30647;SDS011;17683;53.360;9.736;2023-06-05T03:18:58;7.43;;;4.40;;
30647;SDS011;17683;53.360;9.736;2023-06-05T03:21:23;6.70;;;4.93;;
30647;SDS011;17683;53.360;9.736;2023-06-05T03:23:49;6.40;;;5.13;;
30647;SDS011;17683;53.360;9.736;2023-06-05T03:26:15;6.25;;;4.43;;
30647;SDS011;17683;53.360;9.736;2023-06-05T03:28:41;7.45;;;4.97;;
30647;SDS011;17683;53.360;9.736;2023-06-05T03:31:07;7.18;;;5.35;;
30647;SDS011;17683;53.360;9.736;2023-06-05T03:33:35;8.43;;;5.20;;
30647;SDS011;17683;53.360;9.736;2023-06-05T03:36:01;8.63;;;5.63;;
30647;SDS011;17683;53.360;9.736;2023-06-05T03:38:27;6.55;;;5.50;;
30647;SDS011;17683;53.360;9.736;2023-06-05T03:40:52;9.68;;;5.65;;
30647;SDS011;17683;53.360;9.736;2023-06-05T03:43:18;10.40;;;5.65;;
30647;SDS011;17683;53.360;9.736;2023-06-05T03:45:44;7.75;;;5.85;;
30647;SDS011;17683;53.360;9.736;2023-06-05T03:48:10;10.40;;;5.57;;
30647;SDS011;17683;53.360;9.736;2023-06-05T03:50:36;9.85;;;5.75;;
30647;SDS011;17683;53.360;9.736;2023-06-05T03:53:06;6.22;;;4.97;;
30647;SDS011;17683;53.360;9.736;2023-06-05T03:55:33;15.77;;;6.85;;
30647;SDS011;17683;53.360;9.736;2023-06-05T03:58:10;6.53;;;5.03;;
30647;SDS011;17683;53.360;9.736;2023-06-05T04:00:47;6.65;;;5.30;;
30647;SDS011;17683;53.360;9.736;2023-06-05T04:03:14;9.55;;;5.78;;
30647;SDS011;17683;53.360;9.736;2023-06-05T04:05:40;8.07;;;5.35;;
30647;SDS011;17683;53.360;9.736;2023-06-05T04:08:07;9.93;;;6.30;;
30647;SDS011;17683;53.360;9.736;2023-06-05T04:10:37;8.35;;;6.22;;
30647;SDS011;17683;53.360;9.736;2023-06-05T04:13:03;7.40;;;5.60;;
30647;SDS011;17683;53.360;9.736;2023-06-05T04:15:29;7.53;;;5.50;;
30647;SDS011;17683;53.360;9.736;2023-06-05T04:17:55;8.00;;;6.35;;
30647;SDS011;17683;53.360;9.736;2023-06-05T04:20:21;7.90;;;5.18;;
30647;SDS011;17683;53.360;9.736;2023-06-05T04:22:47;9.50;;;7.55;;
30647;SDS011;17683;53.360;9.736;2023-06-05T04:25:13;8.90;;;6.57;;
30647;SDS011;17683;53.360;9.736;2023-06-05T04:27:39;10.20;;;6.68;;
30647;SDS011;17683;53.360;9.736;2023-06-05T04:30:06;8.68;;;6.80;;
30647;SDS011;17683;53.360;9.736;2023-06-05T04:32:34;7.90;;;6.10;;
30647;SDS011;17683;53.360;9.736;2023-06-05T04:35:06;8.82;;;6.15;;
30647;SDS011;17683;53.360;9.736;2023-06-05T04:37:33;9.77;;;6.95;;
30647;SDS011;17683;53.360;9.736;2023-06-05T04:40:00;7.72;;;5.45;;
30647;SDS011;17683;53.360;9.736;2023-06-05T04:42:36;8.57;;;6.05;;
30647;SDS011;17683;53.360;9.736;2023-06-05T04:45:03;7.78;;;5.25;;
30647;SDS011;17683;53.360;9.736;2023-06-05T04:47:30;11.88;;;7.10;;
30647;SDS011;17683;53.360;9.736;2023-06-05T04:50:00;11.85;;;7.10;;
30647;SDS011;17683;53.360;9.736;2023-06-05T04:52:30;8.40;;;6.20;;
30647;SDS011;17683;53.360;9.736;2023-06-05T04:54:57;11.40;;;6.80;;
30647;SDS011;17683;53.360;9.736;2023-06-05T04:57:26;10.90;;;6.60;;
30647;SDS011;17683;53.360;9.736;2023-06-05T04:59:53;7.18;;;6.03;;
30647;SDS011;17683;53.360;9.736;2023-06-05T05:02:19;12.80;;;7.63;;
30647;SDS011;17683;53.360;9.736;2023-06-05T05:04:46;12.30;;;7.47;;
30647;SDS011;17683;53.360;9.736;2023-06-05T05:07:12;21.88;;;9.90;;
30647;SDS011;17683;53.360;9.736;2023-06-05T05:09:42;15.00;;;10.00;;
30647;SDS011;17683;53.360;9.736;2023-06-05T05:12:11;14.45;;;10.15;;
30647;SDS011;17683;53.360;9.736;2023-06-05T05:14:37;17.42;;;9.38;;
30647;SDS011;17683;53.360;9.736;2023-06-05T05:17:05;19.88;;;11.57;;
30647;SDS011;17683;53.360;9.736;2023-06-05T05:19:30;14.48;;;8.73;;
30647;SDS011;17683;53.360;9.736;2023-06-05T05:21:56;13.50;;;9.05;;
30647;SDS011;17683;53.360;9.736;2023-06-05T05:24:22;15.15;;;10.52;;
30647;SDS011;17683;53.360;9.736;2023-06-05T05:26:49;16.48;;;10.00;;
30647;SDS011;17683;53.360;9.736;2023-06-05T05:29:16;19.27;;;9.27;;
30647;SDS011;17683;53.360;9.736;2023-06-05T05:31:43;15.68;;;9.50;;
30647;SDS011;17683;53.360;9.736;2023-06-05T05:34:09;11.43;;;8.60;;
30647;SDS011;17683;53.360;9.736;2023-06-05T05:36:35;12.82;;;8.80;;
30647;SDS011;17683;53.360;9.736;2023-06-05T05:39:02;18.40;;;11.13;;
30647;SDS011;17683;53.360;9.736;2023-06-05T05:41:28;17.67;;;9.98;;
30647;SDS011;17683;53.360;9.736;2023-06-05T05:43:54;14.73;;;9.00;;
30647;SDS011;17683;53.360;9.736;2023-06-05T05:46:19;14.90;;;9.68;;
30647;SDS011;17683;53.360;9.736;2023-06-05T05:48:45;17.30;;;9.80;;
30647;SDS011;17683;53.360;9.736;2023-06-05T05:51:11;17.42;;;9.75;;
30647;SDS011;17683;53.360;9.736;2023-06-05T05:53:37;19.83;;;10.48;;
30647;SDS011;17683;53.360;9.736;2023-06-05T05:56:02;18.02;;;10.05;;
30647;SDS011;17683;53.360;9.736;2023-06-05T05:58:29;12.25;;;8.75;;
30647;SDS011;17683;53.360;9.736;2023-06-05T06:00:55;19.45;;;9.43;;
30647;SDS011;17683;53.360;9.736;2023-06-05T06:03:20;10.38;;;8.15;;
30647;SDS011;17683;53.360;9.736;2023-06-05T06:05:47;12.43;;;8.45;;
30647;SDS011;17683;53.360;9.736;2023-06-05T06:08:13;16.10;;;9.60;;
30647;SDS011;17683;53.360;9.736;2023-06-05T06:10:40;13.57;;;8.88;;
30647;SDS011;17683;53.360;9.736;2023-06-05T06:13:06;19.83;;;10.90;;
30647;SDS011;17683;53.360;9.736;2023-06-05T06:15:32;17.73;;;9.15;;
30647;SDS011;17683;53.360;9.736;2023-06-05T06:17:58;21.48;;;10.10;;
30647;SDS011;17683;53.360;9.736;2023-06-05T06:20:27;16.58;;;9.82;;
30647;SDS011;17683;53.360;9.736;2023-06-05T06:22:53;17.05;;;9.93;;
30647;SDS011;17683;53.360;9.736;2023-06-05T06:25:20;14.35;;;9.27;;
30647;SDS011;17683;53.360;9.736;2023-06-05T06:27:46;14.00;;;9.32;;
30647;SDS011;17683;53.360;9.736;2023-06-05T06:30:14;16.27;;;9.00;;
30647;SDS011;17683;53.360;9.736;2023-06-05T06:32:40;11.90;;;8.60;;
30647;SDS011;17683;53.360;9.736;2023-06-05T06:35:06;14.10;;;8.48;;
30647;SDS011;17683;53.360;9.736;2023-06-05T06:37:32;18.63;;;9.90;;
30647;SDS011;17683;53.360;9.736;2023-06-05T06:39:58;15.95;;;8.45;;
30647;SDS011;17683;53.360;9.736;2023-06-05T06:42:24;13.30;;;8.15;;
30647;SDS011;17683;53.360;9.736;2023-06-05T06:44:53;16.80;;;8.43;;
30647;SDS011;17683;53.360;9.736;2023-06-05T06:47:23;16.73;;;8.65;;
30647;SDS011;17683;53.360;9.736;2023-06-05T06:49:50;14.77;;;8.40;;
30647;SDS011;17683;53.360;9.736;2023-06-05T06:52:16;16.33;;;8.27;;
30647;SDS011;17683;53.360;9.736;2023-06-05T06:54:43;13.65;;;7.20;;
30647;SDS011;17683;53.360;9.736;2023-06-05T06:57:09;16.13;;;9.27;;
30647;SDS011;17683;53.360;9.736;2023-06-05T06:59:35;14.52;;;8.00;;
30647;SDS011;17683;53.360;9.736;2023-06-05T07:02:34;14.68;;;7.93;;
30647;SDS011;17683;53.360;9.736;2023-06-05T07:04:52;10.85;;;6.22;;
30647;SDS011;17683;53.360;9.736;2023-06-05T07:07:19;6.85;;;6.10;;
30647;SDS011;17683;53.360;9.736;2023-06-05T07:09:48;12.95;;;7.30;;
30647;SDS011;17683;53.360;9.736;2023-06-05T07:12:17;11.20;;;6.93;;
30647;SDS011;17683;53.360;9.736;2023-06-05T07:14:45;11.02;;;6.30;;
30647;SDS011;17683;53.360;9.736;2023-06-05T07:17:11;11.52;;;7.90;;
30647;SDS011;17683;53.360;9.736;2023-06-05T07:19:37;6.95;;;5.63;;
30647;SDS011;17683;53.360;9.736;2023-06-05T07:22:03;9.75;;;6.68;;
30647;SDS011;17683;53.360;9.736;2023-06-05T07:24:30;10.43;;;5.93;;
30647;SDS011;17683;53.360;9.736;2023-06-05T07:26:57;12.48;;;7.55;;
30647;SDS011;17683;53.360;9.736;2023-06-05T07:29:25;12.00;;;6.30;;
30647;SDS011;17683;53.360;9.736;2023-06-05T07:31:51;11.68;;;7.13;;
30647;SDS011;17683;53.360;9.736;2023-06-05T07:34:19;10.85;;;6.22;;
30647;SDS011;17683;53.360;9.736;2023-06-05T07:36:45;11.10;;;6.43;;
30647;SDS011;17683;53.360;9.736;2023-06-05T07:39:15;16.55;;;6.55;;
30647;SDS011;17683;53.360;9.736;2023-06-05T07:41:41;10.38;;;6.13;;
30647;SDS011;17683;53.360;9.736;2023-06-05T07:44:11;9.38;;;6.88;;
30647;SDS011;17683;53.360;9.736;2023-06-05T07:46:44;8.05;;;5.57;;
30647;SDS011;17683;53.360;9.736;2023-06-05T07:49:10;10.82;;;4.97;;
30647;SDS011;17683;53.360;9.736;2023-06-05T07:51:36;10.02;;;5.68;;
30647;SDS011;17683;53.360;9.736;2023-06-05T07:54:02;11.30;;;4.70;;
30647;SDS011;17683;53.360;9.736;2023-06-05T07:56:32;10.25;;;5.40;;
30647;SDS011;17683;53.360;9.736;2023-06-05T07:58:59;11.80;;;5.43;;
30647;SDS011;17683;53.360;9.736;2023-06-05T08:01:25;7.88;;;5.25;;
30647;SDS011;17683;53.360;9.736;2023-06-05T08:03:52;8.30;;;5.43;;
30647;SDS011;17683;53.360;9.736;2023-06-05T08:06:19;8.55;;;5.47;;
30647;SDS011;17683;53.360;9.736;2023-06-05T08:08:45;13.13;;;5.75;;
30647;SDS011;17683;53.360;9.736;2023-06-05T08:11:10;10.38;;;5.28;;
30647;SDS011;17683;53.360;9.736;2023-06-05T08:13:37;14.90;;;5.00;;
30647;SDS011;17683;53.360;9.736;2023-06-05T08:16:03;9.45;;;4.53;;
30647;SDS011;17683;53.360;9.736;2023-06-05T08:18:30;10.25;;;4.13;;
30647;SDS011;17683;53.360;9.736;2023-06-05T08:20:56;9.20;;;4.78;;
30647;SDS011;17683;53.360;9.736;2023-06-05T08:23:22;10.73;;;4.93;;
30647;SDS011;17683;53.360;9.736;2023-06-05T08:25:48;12.63;;;5.40;;
30647;SDS011;17683;53.360;9.736;2023-06-05T08:28:14;9.38;;;4.72;;
30647;SDS011;17683;53.360;9.736;2023-06-05T08:30:41;8.30;;;4.82;;
30647;SDS011;17683;53.360;9.736;2023-06-05T08:33:07;10.93;;;3.97;;
30647;SDS011;17683;53.360;9.736;2023-06-05T08:35:33;6.85;;;3.85;;
30647;SDS011;17683;53.360;9.736;2023-06-05T08:37:59;10.27;;;4.28;;
30647;SDS011;17683;53.360;9.736;2023-06-05T08:40:27;7.82;;;4.53;;
30647;SDS011;17683;53.360;9.736;2023-06-05T08:42:54;7.22;;;4.00;;
30647;SDS011;17683;53.360;9.736;2023-06-05T08:45:20;10.30;;;4.70;;
30647;SDS011;17683;53.360;9.736;2023-06-05T08:47:47;8.75;;;4.60;;
30647;SDS011;17683;53.360;9.736;2023-06-05T08:50:16;12.13;;;5.25;;
30647;SDS011;17683;53.360;9.736;2023-06-05T08:52:43;8.75;;;4.68;;
30647;SDS011;17683;53.360;9.736;2023-06-05T08:55:11;9.05;;;4.22;;
30647;SDS011;17683;53.360;9.736;2023-06-05T08:57:40;9.55;;;4.50;;
30647;SDS011;17683;53.360;9.736;2023-06-05T09:00:07;7.97;;;4.45;;
30647;SDS011;17683;53.360;9.736;2023-06-05T09:02:37;8.60;;;5.05;;
30647;SDS011;17683;53.360;9.736;2023-06-05T09:05:03;7.43;;;3.97;;
30647;SDS011;17683;53.360;9.736;2023-06-05T09:07:29;10.20;;;5.10;;
30647;SDS011;17683;53.360;9.736;2023-06-05T09:09:58;9.55;;;4.45;;
30647;SDS011;17683;53.360;9.736;2023-06-05T09:12:24;14.10;;;4.80;;
30647;SDS011;17683;53.360;9.736;2023-06-05T09:14:50;9.32;;;4.20;;
30647;SDS011;17683;53.360;9.736;2023-06-05T09:17:17;10.00;;;3.72;;
30647;SDS011;17683;53.360;9.736;2023-06-05T09:19:43;7.43;;;3.85;;
30647;SDS011;17683;53.360;9.736;2023-06-05T09:22:11;5.95;;;3.50;;
30647;SDS011;17683;53.360;9.736;2023-06-05T09:24:38;8.30;;;3.88;;
30647;SDS011;17683;53.360;9.736;2023-06-05T09:27:09;10.93;;;3.67;;
30647;SDS011;17683;53.360;9.736;2023-06-05T09:29:39;6.90;;;4.00;;
30647;SDS011;17683;53.360;9.736;2023-06-05T09:32:09;8.48;;;3.70;;
30647;SDS011;17683;53.360;9.736;2023-06-05T09:34:43;9.68;;;3.58;;
30647;SDS011;17683;53.360;9.736;2023-06-05T09:37:12;7.32;;;3.65;;
30647;SDS011;17683;53.360;9.736;2023-06-05T09:39:38;12.05;;;4.13;;
30647;SDS011;17683;53.360;9.736;2023-06-05T09:42:08;7.50;;;4.28;;
30647;SDS011;17683;53.360;9.736;2023-06-05T09:44:34;5.53;;;3.72;;
30647;SDS011;17683;53.360;9.736;2023-06-05T09:47:05;10.65;;;4.07;;
30647;SDS011;17683;53.360;9.736;2023-06-05T09:52:07;8.70;;;4.75;;
30647;SDS011;17683;53.360;9.736;2023-06-05T09:54:36;8.93;;;3.83;;
30647;SDS011;17683;53.360;9.736;2023-06-05T09:57:04;6.63;;;4.32;;
30647;SDS011;17683;53.360;9.736;2023-06-05T09:59:32;9.00;;;3.97;;
30647;SDS011;17683;53.360;9.736;2023-06-05T10:02:00;7.60;;;3.55;;
30647;SDS011;17683;53.360;9.736;2023-06-05T10:04:32;14.38;;;4.22;;
30647;SDS011;17683;53.360;9.736;2023-06-05T10:07:03;10.20;;;4.45;;
30647;SDS011;17683;53.360;9.736;2023-06-05T10:09:30;10.23;;;3.70;;
30647;SDS011;17683;53.360;9.736;2023-06-05T10:11:57;9.38;;;3.25;;
30647;SDS011;17683;53.360;9.736;2023-06-05T10:14:23;9.93;;;3.67;;
30647;SDS011;17683;53.360;9.736;2023-06-05T10:16:50;10.65;;;4.65;;
30647;SDS011;17683;53.360;9.736;2023-06-05T10:19:19;13.40;;;4.50;;
30647;SDS011;17683;53.360;9.736;2023-06-05T10:21:46;12.20;;;5.07;;
30647;SDS011;17683;53.360;9.736;2023-06-05T10:24:35;7.22;;;4.45;;
30647;SDS011;17683;53.360;9.736;2023-06-05T10:27:10;7.00;;;3.85;;
30647;SDS011;17683;53.360;9.736;2023-06-05T10:38:26;9.95;;;3.97;;
30647;SDS011;17683;53.360;9.736;2023-06-05T10:40:56;8.73;;;3.60;;
30647;SDS011;17683;53.360;9.736;2023-06-05T10:43:29;8.25;;;3.65;;
30647;SDS011;17683;53.360;9.736;2023-06-05T10:45:59;7.82;;;3.80;;
30647;SDS011;17683;53.360;9.736;2023-06-05T10:49:05;9.68;;;4.07;;
30647;SDS011;17683;53.360;9.736;2023-06-05T10:51:34;9.25;;;3.83;;
30647;SDS011;17683;53.360;9.736;2023-06-05T10:54:03;6.75;;;4.13;;
30647;SDS011;17683;53.360;9.736;2023-06-05T10:59:22;5.00;;;3.10;;
30647;SDS011;17683;53.360;9.736;2023-06-05T11:02:25;7.70;;;3.30;;
30647;SDS011;17683;53.360;9.736;2023-06-05T11:07:16;8.18;;;4.00;;
30647;SDS011;17683;53.360;9.736;2023-06-05T11:12:27;6.38;;;3.67;;
30647;SDS011;17683;53.360;9.736;2023-06-05T11:15:13;8.10;;;3.28;;
30647;SDS011;17683;53.360;9.736;2023-06-05T11:17:41;15.73;;;4.18;;
30647;SDS011;17683;53.360;9.736;2023-06-05T11:20:08;9.38;;;3.80;;
30647;SDS011;17683;53.360;9.736;2023-06-05T11:28:02;6.85;;;3.08;;
30647;SDS011;17683;53.360;9.736;2023-06-05T11:30:31;8.23;;;3.45;;
30647;SDS011;17683;53.360;9.736;2023-06-05T11:33:11;4.57;;;3.58;;
30647;SDS011;17683;53.360;9.736;2023-06-05T11:35:38;5.90;;;3.22;;
30647;SDS011;17683;53.360;9.736;2023-06-05T11:38:08;5.65;;;3.53;;
30647;SDS011;17683;53.360;9.736;2023-06-05T11:43:05;6.57;;;3.40;;
30647;SDS011;17683;53.360;9.736;2023-06-05T11:45:32;9.95;;;4.10;;
30647;SDS011;17683;53.360;9.736;2023-06-05T11:48:04;9.45;;;3.53;;
30647;SDS011;17683;53.360;9.736;2023-06-05T11:50:33;8.23;;;3.47;;
30647;SDS011;17683;53.360;9.736;2023-06-05T11:53:07;6.32;;;3.50;;
30647;SDS011;17683;53.360;9.736;2023-06-05T11:55:36;6.43;;;3.35;;
30647;SDS011;17683;53.360;9.736;2023-06-05T11:58:21;9.15;;;3.25;;
30647;SDS011;17683;53.360;9.736;2023-06-05T12:00:47;8.38;;;3.03;;
30647;SDS011;17683;53.360;9.736;2023-06-05T12:03:17;5.28;;;2.55;;
30647;SDS011;17683;53.360;9.736;2023-06-05T12:05:44;4.07;;;2.88;;
30647;SDS011;17683;53.360;9.736;2023-06-05T12:08:26;5.53;;;2.53;;
30647;SDS011;17683;53.360;9.736;2023-06-05T12:10:55;7.57;;;3.30;;
30647;SDS011;17683;53.360;9.736;2023-06-05T12:16:15;7.30;;;4.05;;
30647;SDS011;17683;53.360;9.736;2023-06-05T12:18:43;8.15;;;3.17;;
30647;SDS011;17683;53.360;9.736;2023-06-05T12:21:23;5.97;;;3.22;;
30647;SDS011;17683;53.360;9.736;2023-06-05T12:23:50;3.72;;;2.95;;
30647;SDS011;17683;53.360;9.736;2023-06-05T12:26:16;5.60;;;3.35;;
30647;SDS011;17683;53.360;9.736;2023-06-05T12:28:43;4.32;;;2.67;;
30647;SDS011;17683;53.360;9.736;2023-06-05T12:31:31;6.70;;;2.70;;
30647;SDS011;17683;53.360;9.736;2023-06-05T12:34:01;5.90;;;3.10;;
30647;SDS011;17683;53.360;9.736;2023-06-05T12:36:29;6.20;;;3.08;;
30647;SDS011;17683;53.360;9.736;2023-06-05T12:39:00;5.15;;;3.55;;
30647;SDS011;17683;53.360;9.736;2023-06-05T12:41:28;7.80;;;3.33;;
30647;SDS011;17683;53.360;9.736;2023-06-05T12:44:00;5.15;;;3.15;;
30647;SDS011;17683;53.360;9.736;2023-06-05T12:46:29;5.18;;;3.20;;
30647;SDS011;17683;53.360;9.736;2023-06-05T12:48:55;3.67;;;2.45;;
30647;SDS011;17683;53.360;9.736;2023-06-05T12:51:23;7.00;;;3.10;;
30647;SDS011;17683;53.360;9.736;2023-06-05T12:53:51;7.13;;;3.38;;
30647;SDS011;17683;53.360;9.736;2023-06-05T12:56:20;5.68;;;3.72;;
30647;SDS011;17683;53.360;9.736;2023-06-05T12:58:52;5.03;;;2.80;;
30647;SDS011;17683;53.360;9.736;2023-06-05T13:01:18;5.80;;;3.22;;
30647;SDS011;17683;53.360;9.736;2023-06-05T13:03:44;4.80;;;2.90;;
30647;SDS011;17683;53.360;9.736;2023-06-05T13:06:10;7.25;;;3.00;;
30647;SDS011;17683;53.360;9.736;2023-06-05T13:08:36;5.88;;;3.15;;
30647;SDS011;17683;53.360;9.736;2023-06-05T13:11:02;4.05;;;2.83;;
30647;SDS011;17683;53.360;9.736;2023-06-05T13:13:28;5.05;;;2.97;;
30647;SDS011;17683;53.360;9.736;2023-06-05T13:15:54;4.30;;;2.80;;
30647;SDS011;17683;53.360;9.736;2023-06-05T13:18:20;7.30;;;2.80;;
30647;SDS011;17683;53.360;9.736;2023-06-05T13:20:46;4.60;;;2.80;;
30647;SDS011;17683;53.360;9.736;2023-06-05T13:23:11;5.60;;;2.80;;
30647;SDS011;17683;53.360;9.736;2023-06-05T13:25:37;5.43;;;3.13;;
30647;SDS011;17683;53.360;9.736;2023-06-05T13:28:04;4.60;;;3.13;;
30647;SDS011;17683;53.360;9.736;2023-06-05T13:30:31;4.43;;;2.63;;
30647;SDS011;17683;53.360;9.736;2023-06-05T13:32:57;4.75;;;2.80;;
30647;SDS011;17683;53.360;9.736;2023-06-05T13:35:24;8.82;;;3.50;;
30647;SDS011;17683;53.360;9.736;2023-06-05T13:37:49;4.18;;;2.97;;
30647;SDS011;17683;53.360;9.736;2023-06-05T13:40:15;6.15;;;3.00;;
30647;SDS011;17683;53.360;9.736;2023-06-05T13:42:41;4.75;;;3.42;;
30647;SDS011;17683;53.360;9.736;2023-06-05T13:45:08;9.02;;;2.85;;
30647;SDS011;17683;53.360;9.736;2023-06-05T13:47:34;6.05;;;2.80;;
30647;SDS011;17683;53.360;9.736;2023-06-05T13:50:01;7.05;;;2.72;;
30647;SDS011;17683;53.360;9.736;2023-06-05T13:52:27;4.95;;;3.10;;
30647;SDS011;17683;53.360;9.736;2023-06-05T13:54:53;8.93;;;3.13;;
30647;SDS011;17683;53.360;9.736;2023-06-05T13:57:19;6.53;;;2.90;;
30647;SDS011;17683;53.360;9.736;2023-06-05T13:59:45;3.30;;;2.92;;
30647;SDS011;17683;53.360;9.736;2023-06-05T14:02:11;7.63;;;3.17;;
30647;SDS011;17683;53.360;9.736;2023-06-05T14:04:37;6.30;;;3.08;;
30647;SDS011;17683;53.360;9.736;2023-06-05T14:07:03;4.05;;;2.40;;
30647;SDS011;17683;53.360;9.736;2023-06-05T14:09:30;5.20;;;2.45;;
30647;SDS011;17683;53.360;9.736;2023-06-05T14:11:56;5.57;;;3.50;;
30647;SDS011;17683;53.360;9.736;2023-06-05T14:14:25;7.82;;;2.85;;
30647;SDS011;17683;53.360;9.736;2023-06-05T14:16:51;3.85;;;2.50;;
30647;SDS011;17683;53.360;9.736;2023-06-05T14:19:17;8.15;;;2.67;;
30647;SDS011;17683;53.360;9.736;2023-06-05T14:21:43;6.70;;;2.83;;
30647;SDS011;17683;53.360;9.736;2023-06-05T14:24:09;5.78;;;2.70;;
30647;SDS011;17683;53.360;9.736;2023-06-05T14:26:35;7.22;;;2.92;;
30647;SDS011;17683;53.360;9.736;2023-06-05T14:29:02;4.80;;;2.70;;
30647;SDS011;17683;53.360;9.736;2023-06-05T14:31:28;5.93;;;3.22;;
30647;SDS011;17683;53.360;9.736;2023-06-05T14:33:53;7.00;;;3.25;;
30647;SDS011;17683;53.360;9.736;2023-06-05T14:36:19;7.07;;;3.55;;
30647;SDS011;17683;53.360;9.736;2023-06-05T14:38:45;4.82;;;2.50;;
30647;SDS011;17683;53.360;9.736;2023-06-05T14:41:11;2.97;;;2.63;;
30647;SDS011;17683;53.360;9.736;2023-06-05T14:43:37;3.05;;;2.30;;
30647;SDS011;17683;53.360;9.736;2023-06-05T14:46:02;5.22;;;2.50;;
30647;SDS011;17683;53.360;9.736;2023-06-05T14:48:29;3.63;;;2.50;;
30647;SDS011;17683;53.360;9.736;2023-06-05T14:50:55;3.40;;;2.70;;
30647;SDS011;17683;53.360;9.736;2023-06-05T14:53:21;5.25;;;2.72;;
30647;SDS011;17683;53.360;9.736;2023-06-05T14:55:46;5.90;;;2.72;;
30647;SDS011;17683;53.360;9.736;2023-06-05T14:58:12;4.13;;;2.97;;
30647;SDS011;17683;53.360;9.736;2023-06-05T15:00:38;3.90;;;2.42;;
30647;SDS011;17683;53.360;9.736;2023-06-05T15:03:04;5.32;;;2.92;;
30647;SDS011;17683;53.360;9.736;2023-06-05T15:05:30;6.07;;;3.10;;
30647;SDS011;17683;53.360;9.736;2023-06-05T15:07:57;4.35;;;2.70;;
30647;SDS011;17683;53.360;9.736;2023-06-05T15:10:24;6.18;;;3.03;;
30647;SDS011;17683;53.360;9.736;2023-06-05T15:12:51;5.10;;;2.78;;
30647;SDS011;17683;53.360;9.736;2023-06-05T15:15:22;3.65;;;2.83;;
30647;SDS011;17683;53.360;9.736;2023-06-05T15:17:49;4.32;;;2.75;;
30647;SDS011;17683;53.360;9.736;2023-06-05T15:20:17;3.42;;;2.63;;
30647;SDS011;17683;53.360;9.736;2023-06-05T15:22:44;7.70;;;2.60;;
30647;SDS011;17683;53.360;9.736;2023-06-05T15:25:10;6.65;;;2.80;;